Time;durP1;ratioP1;P1;durP2;ratioP2;P2;SDS_P1;SDS_P2;PMS_P1;PMS_P2;Temp;Humidity;BMP_temperature;BMP_pressure;BME280_temperature;BME280_humidity;BME280_pressure;Samples;Min_cycle;Max_cycle;Signal;HPM_P1;HPM_P2
2021/09/22 00:00:11;;;;;;;8.63;2.53;;;;;;;;;;4953315;28;20439;-75
2021/09/22 00:02:36;;;;;;;5.03;2.40;;;;;;;;;;4958781;28;20249;-76
2021/09/22 00:05:02;;;;;;;3.33;2.00;;;;;;;;;;4963526;28;20197;-76
2021/09/22 00:07:27;;;;;;;6.30;2.20;;;;;;;;;;4961601;28;20190;-76
2021/09/22 00:09:52;;;;;;;5.70;2.60;;;;;;;;;;4956602;28;20194;-76
2021/09/22 00:12:17;;;;;;;4.30;2.43;;;;;;;;;;4953875;28;20306;-76
2021/09/22 00:14:42;;;;;;;3.73;2.13;;;;;;;;;;4961640;28;20221;-76
2021/09/22 00:17:08;;;;;;;7.47;3.10;;;;;;;;;;4956051;28;20524;-76
2021/09/22 00:19:33;;;;;;;7.50;2.40;;;;;;;;;;4956821;28;20189;-76
2021/09/22 00:21:58;;;;;;;6.80;3.20;;;;;;;;;;4953476;28;20179;-76
2021/09/22 00:24:24;;;;;;;7.43;3.43;;;;;;;;;;4958354;28;20678;-76
2021/09/22 00:26:49;;;;;;;8.57;2.70;;;;;;;;;;4956575;28;20214;-76
2021/09/22 00:29:14;;;;;;;6.20;2.73;;;;;;;;;;4959593;28;20636;-76
2021/09/22 00:31:39;;;;;;;7.17;2.97;;;;;;;;;;4955625;28;20186;-76
2021/09/22 00:34:05;;;;;;;7.70;3.20;;;;;;;;;;4954918;28;20210;-76
2021/09/22 00:36:30;;;;;;;4.50;2.93;;;;;;;;;;4952896;28;20178;-76
2021/09/22 00:38:55;;;;;;;5.33;2.97;;;;;;;;;;4957093;28;20221;-76
2021/09/22 00:41:21;;;;;;;7.13;3.40;;;;;;;;;;4955051;28;20178;-76
2021/09/22 00:43:46;;;;;;;7.73;3.40;;;;;;;;;;4954622;28;20211;-76
2021/09/22 00:46:11;;;;;;;4.63;3.10;;;;;;;;;;4955305;28;20542;-76
2021/09/22 00:48:36;;;;;;;5.30;3.30;;;;;;;;;;4953871;28;20194;-76
2021/09/22 00:51:03;;;;;;;5.60;3.40;;;;;;;;;;4952856;28;20178;-76
2021/09/22 00:53:28;;;;;;;5.73;3.27;;;;;;;;;;4956811;28;20237;-76
2021/09/22 00:55:54;;;;;;;6.03;3.30;;;;;;;;;;4954145;28;20445;-75
2021/09/22 00:58:19;;;;;;;7.13;3.40;;;;;;;;;;4957755;28;20206;-75
2021/09/22 01:00:44;;;;;;;6.40;3.07;;;;;;;;;;4955641;28;20754;-75
2021/09/22 01:03:09;;;;;;;6.87;3.63;;;;;;;;;;4953076;28;20199;-75
2021/09/22 01:05:37;;;;;;;5.03;3.13;;;;;;;;;;4953968;28;20225;-76
2021/09/22 01:08:05;;;;;;;7.33;3.77;;;;;;;;;;4950038;28;20663;-75
2021/09/22 01:10:31;;;;;;;6.80;4.10;;;;;;;;;;4956987;28;20443;-76
2021/09/22 01:12:56;;;;;;;9.10;3.77;;;;;;;;;;4960762;28;20532;-76
2021/09/22 01:15:26;;;;;;;5.77;3.70;;;;;;;;;;4956347;28;22360;-75
2021/09/22 01:17:52;;;;;;;5.20;3.40;;;;;;;;;;4955057;28;20202;-76
2021/09/22 01:20:17;;;;;;;8.40;3.10;;;;;;;;;;4960251;28;20943;-76
2021/09/22 01:22:42;;;;;;;5.63;3.27;;;;;;;;;;4952877;28;20449;-76
2021/09/22 01:25:10;;;;;;;8.10;2.73;;;;;;;;;;4957569;28;20190;-76
2021/09/22 01:27:44;;;;;;;5.10;3.63;;;;;;;;;;4955468;28;20191;-76
2021/09/22 01:30:09;;;;;;;4.33;3.23;;;;;;;;;;4958400;28;20737;-76
2021/09/22 01:32:35;;;;;;;7.20;3.37;;;;;;;;;;4952642;28;20852;-76
2021/09/22 01:35:00;;;;;;;5.33;3.17;;;;;;;;;;4955792;28;20281;-76
2021/09/22 01:37:25;;;;;;;6.87;3.57;;;;;;;;;;4956529;28;20215;-76
2021/09/22 01:39:50;;;;;;;4.97;2.80;;;;;;;;;;4958664;28;20187;-75
2021/09/22 01:42:15;;;;;;;6.00;3.30;;;;;;;;;;4960023;28;20234;-76
2021/09/22 01:44:41;;;;;;;7.13;3.40;;;;;;;;;;4955264;28;20197;-76
2021/09/22 01:47:06;;;;;;;9.80;3.57;;;;;;;;;;4955892;28;20868;-76
2021/09/22 01:49:31;;;;;;;6.20;2.97;;;;;;;;;;4956493;28;20330;-76
2021/09/22 01:52:02;;;;;;;7.23;2.60;;;;;;;;;;4962210;28;20196;-76
2021/09/22 01:54:27;;;;;;;5.13;2.77;;;;;;;;;;4958256;28;20469;-76
2021/09/22 01:56:53;;;;;;;6.63;3.23;;;;;;;;;;4965457;28;21149;-76
2021/09/22 01:59:18;;;;;;;6.43;3.30;;;;;;;;;;4964585;28;20179;-76
2021/09/22 02:01:43;;;;;;;7.60;2.97;;;;;;;;;;4953593;28;20190;-75
2021/09/22 02:04:09;;;;;;;6.13;3.17;;;;;;;;;;4959103;28;20587;-76
2021/09/22 02:06:34;;;;;;;7.93;3.67;;;;;;;;;;4962023;28;20582;-76
2021/09/22 02:08:59;;;;;;;6.27;3.17;;;;;;;;;;4962318;28;20187;-76
2021/09/22 02:11:24;;;;;;;4.90;2.83;;;;;;;;;;4964168;28;20218;-76
2021/09/22 02:13:50;;;;;;;5.53;2.47;;;;;;;;;;4964548;28;20215;-75
2021/09/22 02:16:15;;;;;;;5.20;2.97;;;;;;;;;;4967139;28;20187;-76
2021/09/22 02:18:40;;;;;;;7.63;3.10;;;;;;;;;;4959651;28;20202;-75
2021/09/22 02:21:09;;;;;;;5.90;3.00;;;;;;;;;;4961855;28;20245;-76
2021/09/22 02:23:36;;;;;;;6.47;3.50;;;;;;;;;;4959542;28;20199;-76
2021/09/22 02:26:01;;;;;;;8.47;3.40;;;;;;;;;;4958444;28;20449;-76
2021/09/22 02:28:26;;;;;;;6.00;3.70;;;;;;;;;;4960621;28;20434;-76
2021/09/22 02:30:52;;;;;;;6.17;3.03;;;;;;;;;;4955627;28;20182;-76
2021/09/22 02:33:17;;;;;;;5.93;3.30;;;;;;;;;;4958864;28;20202;-76
2021/09/22 02:35:42;;;;;;;5.33;3.20;;;;;;;;;;4957668;28;20179;-76
2021/09/22 02:38:07;;;;;;;6.73;4.10;;;;;;;;;;4962839;28;20213;-76
2021/09/22 02:40:32;;;;;;;6.53;4.07;;;;;;;;;;4958639;28;20285;-76
2021/09/22 02:42:58;;;;;;;5.20;3.40;;;;;;;;;;4958043;28;20696;-76
2021/09/22 02:45:23;;;;;;;9.20;4.10;;;;;;;;;;4958920;28;20178;-76
2021/09/22 02:47:48;;;;;;;5.43;3.80;;;;;;;;;;4962642;28;20189;-76
2021/09/22 02:50:17;;;;;;;9.67;4.93;;;;;;;;;;4953792;28;20187;-76
2021/09/22 02:52:42;;;;;;;5.03;4.50;;;;;;;;;;4963253;28;20203;-75
2021/09/22 02:55:08;;;;;;;9.67;4.37;;;;;;;;;;4957544;28;20444;-76
2021/09/22 02:57:33;;;;;;;5.73;4.03;;;;;;;;;;4953505;28;20885;-76
2021/09/22 02:59:59;;;;;;;10.97;4.80;;;;;;;;;;4967138;28;20246;-76
2021/09/22 03:02:24;;;;;;;9.73;5.60;;;;;;;;;;4956237;28;20262;-75
2021/09/22 03:04:49;;;;;;;11.43;6.23;;;;;;;;;;4956424;28;20230;-75
2021/09/22 03:07:14;;;;;;;8.63;5.60;;;;;;;;;;4957710;28;20182;-76
2021/09/22 03:09:40;;;;;;;9.07;5.13;;;;;;;;;;4963383;28;20183;-75
2021/09/22 03:12:05;;;;;;;10.33;6.27;;;;;;;;;;4962040;28;20194;-75
2021/09/22 03:14:30;;;;;;;6.70;5.30;;;;;;;;;;4955260;28;20183;-75
2021/09/22 03:16:55;;;;;;;7.40;4.97;;;;;;;;;;4960743;28;20233;-76
2021/09/22 03:19:21;;;;;;;8.10;5.80;;;;;;;;;;4959190;28;20233;-75
2021/09/22 03:21:46;;;;;;;7.80;4.90;;;;;;;;;;4959335;28;20182;-75
2021/09/22 03:24:11;;;;;;;6.60;4.93;;;;;;;;;;4959071;28;20205;-75
2021/09/22 03:26:36;;;;;;;7.77;5.57;;;;;;;;;;4961131;28;20273;-75
2021/09/22 03:29:02;;;;;;;8.50;5.80;;;;;;;;;;4957633;28;20185;-76
2021/09/22 03:31:27;;;;;;;7.53;5.77;;;;;;;;;;4954664;28;21111;-75
2021/09/22 03:33:52;;;;;;;7.23;5.83;;;;;;;;;;4954603;28;20206;-75
2021/09/22 03:36:18;;;;;;;13.97;6.90;;;;;;;;;;4954785;28;20189;-75
2021/09/22 03:38:43;;;;;;;7.70;5.47;;;;;;;;;;4957531;28;20206;-75
2021/09/22 03:41:08;;;;;;;8.40;5.80;;;;;;;;;;4953100;28;20179;-75
2021/09/22 03:43:34;;;;;;;9.03;5.47;;;;;;;;;;4951842;28;20211;-75
2021/09/22 03:46:00;;;;;;;10.37;5.60;;;;;;;;;;4955163;28;20183;-75
2021/09/22 03:48:25;;;;;;;6.43;5.23;;;;;;;;;;4952816;28;20194;-75
2021/09/22 03:50:50;;;;;;;12.30;5.50;;;;;;;;;;4959434;28;20532;-75
2021/09/22 03:53:16;;;;;;;8.93;5.60;;;;;;;;;;4952141;28;20210;-75
2021/09/22 03:55:43;;;;;;;9.93;5.47;;;;;;;;;;4958162;28;20187;-75
2021/09/22 03:58:08;;;;;;;11.20;4.90;;;;;;;;;;4953510;28;20473;-75
2021/09/22 04:00:33;;;;;;;6.97;4.93;;;;;;;;;;4949372;28;20426;-76
2021/09/22 04:02:58;;;;;;;6.43;5.17;;;;;;;;;;4951854;28;20195;-75
2021/09/22 04:05:24;;;;;;;10.20;4.97;;;;;;;;;;4954097;28;20690;-75
2021/09/22 04:07:49;;;;;;;8.03;5.00;;;;;;;;;;4955789;28;20186;-75
2021/09/22 04:10:14;;;;;;;10.37;5.20;;;;;;;;;;4956195;28;20186;-75
2021/09/22 04:12:40;;;;;;;6.40;4.50;;;;;;;;;;4955860;28;20210;-75
2021/09/22 04:15:05;;;;;;;11.97;5.50;;;;;;;;;;4953198;28;20256;-75
2021/09/22 04:17:31;;;;;;;7.17;4.83;;;;;;;;;;4947807;28;20234;-75
2021/09/22 04:19:56;;;;;;;9.77;5.00;;;;;;;;;;4955930;28;20178;-75
2021/09/22 04:22:21;;;;;;;7.10;5.07;;;;;;;;;;4956741;28;20711;-75
2021/09/22 04:24:46;;;;;;;6.70;4.83;;;;;;;;;;4958721;28;20186;-75
2021/09/22 04:27:12;;;;;;;10.53;5.83;;;;;;;;;;4954846;28;20187;-75
2021/09/22 04:29:37;;;;;;;6.10;4.40;;;;;;;;;;4956397;28;20186;-75
2021/09/22 04:32:02;;;;;;;5.80;4.93;;;;;;;;;;4957408;28;20625;-75
2021/09/22 04:34:27;;;;;;;7.70;5.47;;;;;;;;;;4957212;28;20556;-75
2021/09/22 04:36:53;;;;;;;7.23;5.00;;;;;;;;;;4956575;28;20214;-75
2021/09/22 04:39:18;;;;;;;4.80;4.27;;;;;;;;;;4957635;28;20183;-75
2021/09/22 04:41:44;;;;;;;9.10;5.80;;;;;;;;;;4956521;28;20187;-75
2021/09/22 04:44:09;;;;;;;9.50;4.40;;;;;;;;;;4959420;28;20773;-74
2021/09/22 04:46:34;;;;;;;8.00;4.97;;;;;;;;;;4955622;28;20527;-75
2021/09/22 04:48:59;;;;;;;7.53;5.10;;;;;;;;;;4960297;28;20215;-75
2021/09/22 04:51:25;;;;;;;13.60;6.07;;;;;;;;;;4959107;28;20239;-75
2021/09/22 04:53:50;;;;;;;9.17;6.40;;;;;;;;;;4958670;28;20572;-75
2021/09/22 04:56:15;;;;;;;6.87;5.43;;;;;;;;;;4958790;28;20190;-75
2021/09/22 04:58:41;;;;;;;10.30;5.40;;;;;;;;;;4958119;28;20297;-75
2021/09/22 05:01:06;;;;;;;9.80;5.10;;;;;;;;;;4955378;28;20303;-75
2021/09/22 05:03:31;;;;;;;7.10;5.87;;;;;;;;;;4958547;28;20195;-75
2021/09/22 05:05:57;;;;;;;7.90;5.13;;;;;;;;;;4957174;28;20962;-76
2021/09/22 05:08:23;;;;;;;10.80;5.63;;;;;;;;;;4951852;28;20203;-75
2021/09/22 05:10:48;;;;;;;8.57;6.80;;;;;;;;;;4950651;28;20434;-76
2021/09/22 05:13:13;;;;;;;8.67;6.10;;;;;;;;;;4952239;28;20211;-75
2021/09/22 05:15:38;;;;;;;8.43;6.40;;;;;;;;;;4951740;28;20187;-75
2021/09/22 05:18:04;;;;;;;10.10;6.63;;;;;;;;;;4950238;28;20202;-75
2021/09/22 05:20:29;;;;;;;7.90;6.27;;;;;;;;;;4950912;28;20190;-75
2021/09/22 05:22:54;;;;;;;6.70;6.10;;;;;;;;;;4957623;28;20202;-75
2021/09/22 05:25:20;;;;;;;8.27;7.00;;;;;;;;;;4955649;28;20234;-75
2021/09/22 05:27:46;;;;;;;7.43;5.83;;;;;;;;;;4957339;28;20179;-75
2021/09/22 05:30:12;;;;;;;10.10;6.53;;;;;;;;;;4953916;28;20179;-75
2021/09/22 05:32:37;;;;;;;10.53;7.00;;;;;;;;;;4960256;28;20819;-75
2021/09/22 05:35:02;;;;;;;10.47;7.50;;;;;;;;;;4957017;28;20199;-75
2021/09/22 05:37:30;;;;;;;8.37;6.33;;;;;;;;;;4957543;28;20194;-75
2021/09/22 05:39:55;;;;;;;8.70;7.27;;;;;;;;;;4954730;28;20190;-75
2021/09/22 05:42:20;;;;;;;8.60;6.93;;;;;;;;;;4956903;28;20455;-75
2021/09/22 05:44:45;;;;;;;10.13;7.17;;;;;;;;;;4954050;28;20205;-76
2021/09/22 05:47:11;;;;;;;9.73;7.93;;;;;;;;;;4957825;28;20445;-75
2021/09/22 05:49:36;;;;;;;9.60;7.27;;;;;;;;;;4957066;28;20276;-75
2021/09/22 05:52:01;;;;;;;8.00;6.40;;;;;;;;;;4956640;28;20183;-75
2021/09/22 05:54:27;;;;;;;11.00;7.53;;;;;;;;;;4958836;28;20210;-75
2021/09/22 05:56:52;;;;;;;11.83;7.33;;;;;;;;;;4956852;28;20286;-75
2021/09/22 05:59:17;;;;;;;8.43;6.73;;;;;;;;;;4957171;28;20191;-75
2021/09/22 06:01:42;;;;;;;10.60;8.00;;;;;;;;;;4958277;28;20266;-75
2021/09/22 06:04:07;;;;;;;8.80;6.97;;;;;;;;;;4958596;28;20207;-75
2021/09/22 06:06:33;;;;;;;10.80;8.30;;;;;;;;;;4960338;28;20297;-75
2021/09/22 06:08:58;;;;;;;9.17;7.77;;;;;;;;;;4956174;28;20179;-75
2021/09/22 06:11:24;;;;;;;12.23;7.70;;;;;;;;;;4957783;28;20278;-75
2021/09/22 06:13:53;;;;;;;11.57;7.60;;;;;;;;;;4956853;28;20206;-75
2021/09/22 06:16:18;;;;;;;12.40;7.43;;;;;;;;;;4959986;28;20194;-75
2021/09/22 06:18:43;;;;;;;8.60;6.73;;;;;;;;;;4961419;28;20470;-75
2021/09/22 06:21:09;;;;;;;9.93;7.43;;;;;;;;;;4959912;28;20483;-75
2021/09/22 06:23:34;;;;;;;9.10;7.50;;;;;;;;;;4961662;28;20195;-76
2021/09/22 06:25:59;;;;;;;8.40;7.53;;;;;;;;;;4957038;28;20658;-75
2021/09/22 06:28:25;;;;;;;9.40;7.57;;;;;;;;;;4956828;28;20190;-76
2021/09/22 06:30:50;;;;;;;10.97;8.47;;;;;;;;;;4958829;28;20179;-75
2021/09/22 06:33:15;;;;;;;11.57;8.87;;;;;;;;;;4960066;28;20207;-75
2021/09/22 06:35:43;;;;;;;13.27;9.53;;;;;;;;;;4957813;28;20211;-76
2021/09/22 06:38:08;;;;;;;11.40;10.00;;;;;;;;;;4960262;28;20690;-76
2021/09/22 06:40:33;;;;;;;9.60;8.60;;;;;;;;;;4959525;28;20426;-76
2021/09/22 06:43:00;;;;;;;12.30;10.33;;;;;;;;;;4958631;28;20211;-75
2021/09/22 06:45:25;;;;;;;11.90;10.80;;;;;;;;;;4954739;28;20542;-76
2021/09/22 06:47:51;;;;;;;11.30;10.07;;;;;;;;;;4955291;28;20436;-76
2021/09/22 06:50:17;;;;;;;12.33;11.20;;;;;;;;;;4951921;28;20178;-76
2021/09/22 06:52:42;;;;;;;15.30;13.23;;;;;;;;;;4943292;28;20883;-75
2021/09/22 06:55:08;;;;;;;14.80;13.33;;;;;;;;;;4956634;28;20309;-75
2021/09/22 06:57:33;;;;;;;17.10;13.13;;;;;;;;;;4952987;28;20198;-76
2021/09/22 06:59:59;;;;;;;18.50;13.20;;;;;;;;;;4960547;28;20183;-75
2021/09/22 07:02:24;;;;;;;15.00;13.03;;;;;;;;;;4956967;28;20222;-75
2021/09/22 07:04:49;;;;;;;14.97;13.47;;;;;;;;;;4963657;28;20264;-75
2021/09/22 07:07:14;;;;;;;14.93;12.80;;;;;;;;;;4956288;28;20750;-75
2021/09/22 07:09:40;;;;;;;15.80;14.10;;;;;;;;;;4949698;28;20210;-75
2021/09/22 07:12:05;;;;;;;17.07;13.50;;;;;;;;;;4957085;28;20190;-75
2021/09/22 07:14:30;;;;;;;18.00;14.40;;;;;;;;;;4959123;28;20229;-75
2021/09/22 07:16:55;;;;;;;16.57;12.87;;;;;;;;;;4957220;28;20206;-75
2021/09/22 07:19:21;;;;;;;15.10;13.50;;;;;;;;;;4958929;28;20211;-75
2021/09/22 07:21:46;;;;;;;15.87;14.30;;;;;;;;;;4956947;28;20542;-75
2021/09/22 07:24:11;;;;;;;16.90;14.47;;;;;;;;;;4953979;28;20213;-75
2021/09/22 07:26:37;;;;;;;14.83;13.10;;;;;;;;;;4956301;28;20193;-75
2021/09/22 07:29:02;;;;;;;15.43;12.50;;;;;;;;;;4956959;28;20182;-75
2021/09/22 07:31:28;;;;;;;15.00;13.20;;;;;;;;;;4954287;28;20191;-75
2021/09/22 07:33:53;;;;;;;15.83;12.80;;;;;;;;;;4959378;28;20194;-75
2021/09/22 07:36:18;;;;;;;15.67;13.70;;;;;;;;;;4955243;28;20219;-76
2021/09/22 07:38:43;;;;;;;13.87;11.40;;;;;;;;;;4958170;28;20576;-75
2021/09/22 07:41:09;;;;;;;14.60;12.20;;;;;;;;;;4959745;28;20190;-76
2021/09/22 07:43:34;;;;;;;17.67;12.57;;;;;;;;;;4955745;28;20298;-75
2021/09/22 07:46:00;;;;;;;15.43;11.37;;;;;;;;;;4956684;28;20201;-75
2021/09/22 07:48:26;;;;;;;13.57;11.00;;;;;;;;;;4959831;28;20230;-76
2021/09/22 07:50:51;;;;;;;16.00;11.03;;;;;;;;;;4953020;28;20433;-75
2021/09/22 07:53:17;;;;;;;14.90;11.17;;;;;;;;;;4960943;28;20214;-75
2021/09/22 07:55:42;;;;;;;17.30;12.00;;;;;;;;;;4954258;28;20449;-76
2021/09/22 07:58:07;;;;;;;10.73;9.73;;;;;;;;;;4956662;28;20214;-76
2021/09/22 08:00:33;;;;;;;17.10;10.00;;;;;;;;;;4952696;28;20702;-75
2021/09/22 08:03:00;;;;;;;14.83;10.60;;;;;;;;;;4954871;28;20208;-76
2021/09/22 08:05:27;;;;;;;11.67;8.40;;;;;;;;;;4957721;28;20194;-75
2021/09/22 08:07:52;;;;;;;13.23;8.83;;;;;;;;;;4953419;28;20442;-76
2021/09/22 08:10:18;;;;;;;11.30;8.33;;;;;;;;;;4949255;28;20943;-75
2021/09/22 08:12:44;;;;;;;11.13;8.43;;;;;;;;;;4955990;28;20736;-75
2021/09/22 08:15:09;;;;;;;20.37;8.80;;;;;;;;;;4956819;28;20182;-76
2021/09/22 08:17:34;;;;;;;15.20;9.67;;;;;;;;;;4953652;28;20979;-75
2021/09/22 08:20:00;;;;;;;12.53;9.30;;;;;;;;;;4955443;28;20191;-75
2021/09/22 08:22:25;;;;;;;13.30;9.20;;;;;;;;;;4956419;28;20240;-76
2021/09/22 08:24:50;;;;;;;16.10;10.00;;;;;;;;;;4959239;28;20241;-75
2021/09/22 08:27:16;;;;;;;11.40;7.70;;;;;;;;;;4954229;28;20183;-75
2021/09/22 08:29:42;;;;;;;13.47;8.23;;;;;;;;;;4954706;28;20190;-76
2021/09/22 08:32:07;;;;;;;16.77;7.93;;;;;;;;;;4954863;28;20274;-76
2021/09/22 08:34:32;;;;;;;12.40;7.80;;;;;;;;;;4955120;28;20521;-75
2021/09/22 08:36:58;;;;;;;12.80;8.37;;;;;;;;;;4949702;28;20211;-76
2021/09/22 08:39:23;;;;;;;11.47;7.67;;;;;;;;;;4953281;28;20261;-75
2021/09/22 08:41:49;;;;;;;10.73;8.60;;;;;;;;;;4953652;28;20243;-75
2021/09/22 08:44:15;;;;;;;13.17;9.00;;;;;;;;;;4953118;28;20647;-76
2021/09/22 08:46:41;;;;;;;11.40;7.60;;;;;;;;;;4951529;28;20569;-76
2021/09/22 08:49:07;;;;;;;12.17;7.03;;;;;;;;;;4956184;28;20439;-75
2021/09/22 08:51:33;;;;;;;11.13;5.87;;;;;;;;;;4951008;28;20485;-76
2021/09/22 08:53:59;;;;;;;12.60;7.93;;;;;;;;;;4955032;28;20485;-77
2021/09/22 08:56:24;;;;;;;10.00;6.83;;;;;;;;;;4956635;28;20186;-76
2021/09/22 08:58:50;;;;;;;11.50;6.53;;;;;;;;;;4954913;28;20218;-76
2021/09/22 09:01:16;;;;;;;12.03;6.70;;;;;;;;;;4953214;28;20431;-76
2021/09/22 09:03:42;;;;;;;11.83;7.67;;;;;;;;;;4955892;28;20524;-76
2021/09/22 09:06:24;;;;;;;12.47;7.40;;;;;;;;;;4956977;28;20193;-76
2021/09/22 09:08:54;;;;;;;14.13;6.33;;;;;;;;;;4952679;28;20439;-76
2021/09/22 09:11:41;;;;;;;11.70;7.40;;;;;;;;;;4956503;28;21229;-77
2021/09/22 09:14:08;;;;;;;11.43;6.70;;;;;;;;;;4952220;28;21174;-77
2021/09/22 09:16:43;;;;;;;9.77;6.93;;;;;;;;;;4955599;28;20438;-75
2021/09/22 09:19:16;;;;;;;13.27;8.20;;;;;;;;;;4955037;28;20938;-76
2021/09/22 09:21:53;;;;;;;10.67;7.20;;;;;;;;;;4951073;28;20447;-75
2021/09/22 09:24:32;;;;;;;14.33;6.97;;;;;;;;;;4952296;28;20438;-75
2021/09/22 09:26:58;;;;;;;10.50;7.53;;;;;;;;;;4956356;28;20457;-76
2021/09/22 09:29:23;;;;;;;10.30;7.87;;;;;;;;;;4957011;28;20438;-75
2021/09/22 09:31:49;;;;;;;11.70;6.53;;;;;;;;;;4952489;28;20228;-78
2021/09/22 09:34:14;;;;;;;11.67;6.80;;;;;;;;;;4953124;28;20179;-76
2021/09/22 09:36:45;;;;;;;17.20;5.80;;;;;;;;;;4954169;28;20227;-76
2021/09/22 09:39:23;;;;;;;15.87;6.93;;;;;;;;;;4956205;28;20238;-76
2021/09/22 09:41:56;;;;;;;7.73;5.70;;;;;;;;;;4955352;28;20430;-76
2021/09/22 09:44:25;;;;;;;9.83;6.00;;;;;;;;;;4959766;28;20441;-76
2021/09/22 09:46:51;;;;;;;10.90;6.10;;;;;;;;;;4966880;28;20948;-77
2021/09/22 09:49:18;;;;;;;9.00;6.40;;;;;;;;;;4957173;28;20439;-76
2021/09/22 09:51:47;;;;;;;12.13;6.40;;;;;;;;;;4963327;28;20187;-75
2021/09/22 09:54:26;;;;;;;14.10;8.40;;;;;;;;;;4955949;28;20463;-77
2021/09/22 09:56:53;;;;;;;13.30;7.37;;;;;;;;;;4966822;28;20926;-76
2021/09/22 09:59:19;;;;;;;12.03;7.73;;;;;;;;;;4949653;28;20462;-76
2021/09/22 10:01:46;;;;;;;13.00;8.43;;;;;;;;;;4958629;28;20442;-75
2021/09/22 10:04:12;;;;;;;15.03;8.37;;;;;;;;;;4954668;28;20517;-76
2021/09/22 10:06:38;;;;;;;15.40;9.70;;;;;;;;;;4960067;28;20441;-76
2021/09/22 10:09:04;;;;;;;12.73;8.93;;;;;;;;;;4961899;28;20434;-77
2021/09/22 10:11:30;;;;;;;15.80;9.90;;;;;;;;;;4963028;28;20346;-76
2021/09/22 10:13:56;;;;;;;14.27;9.50;;;;;;;;;;4963100;28;20205;-76
2021/09/22 10:16:22;;;;;;;14.00;8.67;;;;;;;;;;4960872;28;21109;-75
2021/09/22 10:18:48;;;;;;;10.90;8.00;;;;;;;;;;4963427;28;20756;-76
2021/09/22 10:21:15;;;;;;;16.07;10.40;;;;;;;;;;4960416;28;20187;-76
2021/09/22 10:23:41;;;;;;;15.43;10.13;;;;;;;;;;4957042;28;20610;-76
2021/09/22 10:26:08;;;;;;;15.93;10.47;;;;;;;;;;4958736;28;20440;-75
2021/09/22 10:28:35;;;;;;;17.67;10.60;;;;;;;;;;4958313;28;20557;-75
2021/09/22 10:31:01;;;;;;;15.37;10.73;;;;;;;;;;4961395;28;20429;-76
2021/09/22 10:33:27;;;;;;;15.97;10.90;;;;;;;;;;4960334;28;20462;-76
2021/09/22 10:36:00;;;;;;;19.50;11.57;;;;;;;;;;4963536;28;20197;-75
2021/09/22 10:38:28;;;;;;;9.67;8.03;;;;;;;;;;4958273;28;20470;-76
2021/09/22 10:41:00;;;;;;;18.30;13.10;;;;;;;;;;4962286;28;20467;-73
2021/09/22 10:43:26;;;;;;;13.57;11.10;;;;;;;;;;4957684;28;20470;-73
2021/09/22 10:46:00;;;;;;;19.30;12.67;;;;;;;;;;4961267;28;20429;-74
2021/09/22 10:48:26;;;;;;;13.07;10.33;;;;;;;;;;4959041;28;20560;-73
2021/09/22 10:50:52;;;;;;;17.93;12.50;;;;;;;;;;4960506;28;20431;-73
2021/09/22 10:53:30;;;;;;;15.83;12.13;;;;;;;;;;4959472;28;20680;-73
2021/09/22 10:56:04;;;;;;;16.70;11.37;;;;;;;;;;4959995;28;20849;-73
2021/09/22 10:58:32;;;;;;;10.93;8.73;;;;;;;;;;4961696;28;20569;-74
2021/09/22 11:00:58;;;;;;;19.87;13.17;;;;;;;;;;4958260;28;20434;-75
2021/09/22 11:03:59;;;;;;;16.23;11.40;;;;;;;;;;4957255;28;20430;-73
2021/09/22 11:07:03;;;;;;;11.43;9.40;;;;;;;;;;4955127;28;20182;-73
2021/09/22 11:09:30;;;;;;;14.53;11.93;;;;;;;;;;4900195;29;20551;-73
2021/09/22 11:11:56;;;;;;;15.33;10.60;;;;;;;;;;4913147;29;20515;-74
2021/09/22 11:14:27;;;;;;;19.77;12.70;;;;;;;;;;4939916;28;20465;-74
2021/09/22 11:16:52;;;;;;;12.70;8.83;;;;;;;;;;4961635;28;20266;-73
2021/09/22 11:19:18;;;;;;;17.30;11.63;;;;;;;;;;4958834;28;20517;-74
2021/09/22 11:21:44;;;;;;;13.23;9.60;;;;;;;;;;4956623;28;20179;-75
2021/09/22 11:24:11;;;;;;;12.67;9.97;;;;;;;;;;4960426;28;20202;-75
2021/09/22 11:26:46;;;;;;;14.50;10.20;;;;;;;;;;4959899;28;20802;-74
2021/09/22 11:29:26;;;;;;;14.67;11.87;;;;;;;;;;4953262;28;20471;-74
2021/09/22 11:31:51;;;;;;;16.50;10.90;;;;;;;;;;4957735;28;20483;-74
2021/09/22 11:34:23;;;;;;;17.70;10.87;;;;;;;;;;4955211;28;20430;-75
2021/09/22 11:37:02;;;;;;;14.23;11.13;;;;;;;;;;4957684;28;20186;-74
2021/09/22 11:39:27;;;;;;;14.60;11.93;;;;;;;;;;4956161;28;20433;-75
2021/09/22 11:41:54;;;;;;;16.90;10.93;;;;;;;;;;4961939;28;20422;-75
2021/09/22 11:44:19;;;;;;;15.97;10.97;;;;;;;;;;4960480;28;20260;-73
2021/09/22 11:46:54;;;;;;;14.40;9.13;;;;;;;;;;4952523;28;20425;-75
2021/09/22 11:49:19;;;;;;;14.47;9.50;;;;;;;;;;4953928;28;20293;-74
2021/09/22 11:51:44;;;;;;;14.40;10.30;;;;;;;;;;4947861;28;21976;-75
2021/09/22 11:54:19;;;;;;;16.10;10.13;;;;;;;;;;4951793;28;20226;-74
2021/09/22 11:56:44;;;;;;;15.67;8.73;;;;;;;;;;4956149;28;20179;-74
2021/09/22 11:59:10;;;;;;;14.97;9.27;;;;;;;;;;4963044;28;20441;-74
2021/09/22 12:01:35;;;;;;;15.07;8.57;;;;;;;;;;4956619;28;21746;-74
2021/09/22 12:04:00;;;;;;;9.57;7.00;;;;;;;;;;4947811;28;20708;-74
2021/09/22 12:06:26;;;;;;;13.00;8.40;;;;;;;;;;4948667;28;20273;-75
2021/09/22 12:08:53;;;;;;;14.47;8.27;;;;;;;;;;4947846;28;20183;-75
2021/09/22 12:11:19;;;;;;;10.23;8.20;;;;;;;;;;4955166;28;20186;-75
2021/09/22 12:13:45;;;;;;;14.10;7.77;;;;;;;;;;4954344;28;20453;-76
2021/09/22 12:16:14;;;;;;;16.07;6.97;;;;;;;;;;4952042;28;20430;-74
2021/09/22 12:18:39;;;;;;;10.87;7.67;;;;;;;;;;4956842;28;20465;-74
2021/09/22 12:21:05;;;;;;;14.27;7.50;;;;;;;;;;4953432;28;20444;-75
2021/09/22 12:23:31;;;;;;;12.53;7.70;;;;;;;;;;4951407;28;20206;-74
2021/09/22 12:26:11;;;;;;;12.40;7.50;;;;;;;;;;4958878;28;20210;-75
2021/09/22 12:28:37;;;;;;;7.77;6.07;;;;;;;;;;4952985;28;20515;-74
2021/09/22 12:31:31;;;;;;;11.73;8.03;;;;;;;;;;4949586;28;20438;-74
2021/09/22 12:33:58;;;;;;;17.43;8.77;;;;;;;;;;4951455;28;20699;-74
2021/09/22 12:36:24;;;;;;;10.87;6.80;;;;;;;;;;4954678;28;20430;-74
2021/09/22 12:38:50;;;;;;;13.10;8.33;;;;;;;;;;4951251;28;20484;-74
2021/09/22 12:41:16;;;;;;;14.27;8.57;;;;;;;;;;4958380;28;20718;-74
2021/09/22 12:43:42;;;;;;;13.70;8.20;;;;;;;;;;4956227;28;20462;-74
2021/09/22 12:46:12;;;;;;;12.43;8.50;;;;;;;;;;4955563;28;20449;-73
2021/09/22 12:48:37;;;;;;;16.40;7.70;;;;;;;;;;4957656;28;20902;-74
2021/09/22 12:51:13;;;;;;;15.37;8.60;;;;;;;;;;4958730;28;20436;-74
2021/09/22 12:53:38;;;;;;;14.67;7.77;;;;;;;;;;4956319;28;20321;-74
2021/09/22 12:56:08;;;;;;;14.53;8.00;;;;;;;;;;4953678;28;20552;-74
2021/09/22 12:58:34;;;;;;;9.53;5.43;;;;;;;;;;4954870;28;20253;-74
2021/09/22 13:01:00;;;;;;;9.87;6.53;;;;;;;;;;4953735;28;20480;-74
2021/09/22 13:03:43;;;;;;;12.67;6.97;;;;;;;;;;4954921;28;20198;-74
2021/09/22 13:06:10;;;;;;;10.53;7.20;;;;;;;;;;4957544;28;20437;-74
2021/09/22 13:09:05;;;;;;;10.50;7.90;;;;;;;;;;4956380;28;20454;-74
2021/09/22 13:11:30;;;;;;;14.43;9.97;;;;;;;;;;4961100;28;20446;-74
2021/09/22 13:14:05;;;;;;;11.93;8.03;;;;;;;;;;4962314;28;20850;-74
2021/09/22 13:16:39;;;;;;;12.43;8.53;;;;;;;;;;4959706;28;20270;-74
2021/09/22 13:19:06;;;;;;;14.03;7.10;;;;;;;;;;4957864;28;20462;-74
2021/09/22 13:21:31;;;;;;;14.10;9.97;;;;;;;;;;4957808;28;20433;-74
2021/09/22 13:23:58;;;;;;;17.37;7.93;;;;;;;;;;4957084;28;20462;-73
2021/09/22 13:26:24;;;;;;;13.70;9.20;;;;;;;;;;4947056;28;20207;-74
2021/09/22 13:28:50;;;;;;;13.93;9.30;;;;;;;;;;4951327;28;21318;-74
2021/09/22 13:31:16;;;;;;;12.53;7.60;;;;;;;;;;4955924;28;20705;-73
2021/09/22 13:33:41;;;;;;;12.03;7.53;;;;;;;;;;4955891;28;20214;-74
2021/09/22 13:36:07;;;;;;;13.23;8.30;;;;;;;;;;4951606;28;20446;-74
2021/09/22 13:38:33;;;;;;;12.30;7.40;;;;;;;;;;4955832;28;20285;-73
2021/09/22 13:40:58;;;;;;;13.57;8.00;;;;;;;;;;4957021;28;20270;-74
2021/09/22 13:43:25;;;;;;;12.40;6.83;;;;;;;;;;4953913;28;20311;-73
2021/09/22 13:45:51;;;;;;;19.73;9.00;;;;;;;;;;4958201;28;20205;-74
2021/09/22 13:48:16;;;;;;;15.37;8.17;;;;;;;;;;4951929;28;20915;-74
2021/09/22 13:50:41;;;;;;;10.53;6.67;;;;;;;;;;4952628;28;20445;-74
2021/09/22 13:53:06;;;;;;;9.27;6.50;;;;;;;;;;4957709;28;20210;-74
2021/09/22 13:55:32;;;;;;;8.60;6.20;;;;;;;;;;4954470;28;20647;-74
2021/09/22 13:57:57;;;;;;;8.90;6.40;;;;;;;;;;4953254;28;20262;-75
2021/09/22 14:00:22;;;;;;;7.40;4.70;;;;;;;;;;4955529;28;20190;-74
2021/09/22 14:02:47;;;;;;;7.50;5.37;;;;;;;;;;4960080;28;20205;-74
2021/09/22 14:05:13;;;;;;;12.20;5.37;;;;;;;;;;4962913;28;20216;-74
2021/09/22 14:07:38;;;;;;;10.43;4.40;;;;;;;;;;4958460;28;20278;-75
2021/09/22 14:10:04;;;;;;;7.30;4.80;;;;;;;;;;4961136;28;20245;-74
2021/09/22 14:12:29;;;;;;;9.37;5.00;;;;;;;;;;4954330;28;20269;-74
2021/09/22 14:14:58;;;;;;;7.30;4.07;;;;;;;;;;4962349;28;20263;-74
2021/09/22 14:17:23;;;;;;;6.30;3.50;;;;;;;;;;4960157;28;20207;-74
2021/09/22 14:19:48;;;;;;;11.00;4.50;;;;;;;;;;4955481;28;20445;-75
2021/09/22 14:22:13;;;;;;;10.63;4.50;;;;;;;;;;4955017;28;20211;-74
2021/09/22 14:24:39;;;;;;;7.10;3.87;;;;;;;;;;4959385;28;20719;-74
2021/09/22 14:27:06;;;;;;;9.30;4.40;;;;;;;;;;4959368;28;20182;-74
2021/09/22 14:29:32;;;;;;;7.70;3.60;;;;;;;;;;4959048;28;20174;-75